Terminal Aerodrome Forecast
Issued by NWS Chicago, IL

Home | Current Version | Previous Version | Text Only | Print | Product List | Glossary On
Versions: 1 2 3 4 5 6 7 8 9 10 11 12 13 14 15 16 17 18 19 20 21 22 23 24 25 26 27 28
981
FTUS43 KLOT 051147 AAA
TAFRFD
TAF AMD
KRFD 051147Z 0512/0612 24005KT 3SM BR OVC005
     FM051300 23006KT 2SM BR OVC004
     FM051330 21005KT 1/4SM FZFG VV002
     FM051600 17006KT 3/4SM BR OVC003
     FM051900 18010G18KT 4SM BR OVC005
     FM052200 17010G18KT P6SM OVC006=

USA.gov is the U.S. government's official web portal to all federal, state and local government web resources and services.